Time;durP1;ratioP1;P1;durP2;ratioP2;P2;SDS_P1;SDS_P2;PMS_P1;PMS_P2;Temp;Humidity;BMP_temperature;BMP_pressure;BME280_temperature;BME280_humidity;BME280_pressure;Samples;Min_cycle;Max_cycle;Signal;HPM_P1;HPM_P2
2023/09/21 00:00:14;;;;;;;3.17;1.80;;;;;;;19.62;100.00;99780.38;5031470;28;20025;-63
2023/09/21 00:02:44;;;;;;;9.32;2.38;;;;;;;19.62;100.00;99751.81;5047419;28;20032;-67
2023/09/21 00:05:10;;;;;;;3.80;2.00;;;;;;;19.66;100.00;99768.44;5048247;28;20473;-70
2023/09/21 00:07:36;;;;;;;4.32;1.92;;;;;;;19.72;100.00;99767.03;5047604;28;20047;-66
2023/09/21 00:10:03;;;;;;;5.15;1.98;;;;;;;19.71;100.00;99763.50;5047242;28;20423;-65
2023/09/21 00:12:29;;;;;;;4.50;2.10;;;;;;;19.68;100.00;99761.97;5047798;28;20445;-66
2023/09/21 00:14:55;;;;;;;3.00;1.70;;;;;;;19.71;100.00;99760.84;5047219;28;20035;-67
2023/09/21 00:17:20;;;;;;;4.00;2.13;;;;;;;19.79;100.00;99776.19;5047925;28;20129;-68
2023/09/21 00:19:46;;;;;;;5.95;1.77;;;;;;;19.81;100.00;99777.72;5030215;28;20057;-69
2023/09/21 00:22:11;;;;;;;4.93;1.77;;;;;;;19.82;100.00;99765.22;5049042;28;20463;-64
2023/09/21 00:24:37;;;;;;;4.00;2.00;;;;;;;19.83;100.00;99765.09;5013622;28;20036;-66
2023/09/21 00:27:03;;;;;;;4.90;2.10;;;;;;;19.86;100.00;99761.28;5047883;28;20479;-66
2023/09/21 00:29:30;;;;;;;5.40;2.13;;;;;;;19.85;100.00;99748.91;5047649;28;20033;-66
2023/09/21 00:31:57;;;;;;;3.35;1.80;;;;;;;19.87;100.00;99754.94;5048480;28;20043;-67
2023/09/21 00:34:24;;;;;;;4.20;2.08;;;;;;;19.94;100.00;99750.75;5047146;28;20021;-63
2023/09/21 00:36:50;;;;;;;4.55;2.00;;;;;;;19.93;100.00;99742.88;5031257;28;20474;-70
2023/09/21 00:39:17;;;;;;;3.47;1.98;;;;;;;19.94;100.00;99748.06;5047863;28;20060;-67
2023/09/21 00:41:42;;;;;;;8.80;2.40;;;;;;;19.68;100.00;99742.41;5047613;28;20531;-68
2023/09/21 00:44:09;;;;;;;4.45;1.88;;;;;;;19.41;100.00;99739.41;5047001;28;20097;-65
2023/09/21 00:46:36;;;;;;;3.50;2.03;;;;;;;19.29;100.00;99746.69;5048011;28;20076;-69
2023/09/21 00:49:04;;;;;;;6.80;2.30;;;;;;;19.50;100.00;99743.09;5047714;28;20106;-68
2023/09/21 00:51:32;;;;;;;7.00;2.03;;;;;;;19.70;100.00;99743.97;5030994;28;20100;-70
2023/09/21 00:53:59;;;;;;;4.30;1.90;;;;;;;19.74;100.00;99733.00;5030815;28;20468;-65
2023/09/21 00:56:27;;;;;;;3.20;1.90;;;;;;;19.78;100.00;99724.56;5048446;28;20021;-68
2023/09/21 00:58:53;;;;;;;6.65;2.30;;;;;;;19.85;100.00;99726.66;5048475;28;20492;-61
2023/09/21 01:01:22;;;;;;;6.22;1.90;;;;;;;19.90;100.00;99722.59;5047764;28;20321;-69
2023/09/21 01:03:49;;;;;;;4.18;2.00;;;;;;;19.85;100.00;99718.66;5047750;28;20104;-69
2023/09/21 01:06:18;;;;;;;2.65;1.70;;;;;;;19.86;100.00;99713.16;5047276;28;20053;-69
2023/09/21 01:08:43;;;;;;;3.03;2.03;;;;;;;19.90;100.00;99719.91;5048575;28;20068;-66
2023/09/21 01:13:51;;;;;;;3.10;1.70;;;;;;;19.86;100.00;99713.16;5029118;26;20560;-61
2023/09/21 01:16:18;;;;;;;7.10;2.00;;;;;;;19.89;100.00;99710.22;5046671;28;20033;-63
2023/09/21 01:18:43;;;;;;;4.05;2.15;;;;;;;19.91;100.00;99710.06;5047656;28;20029;-61
2023/09/21 01:21:13;;;;;;;4.30;1.88;;;;;;;19.92;100.00;99699.25;5047419;28;20056;-63
2023/09/21 01:23:53;;;;;;;5.05;2.10;;;;;;;19.89;100.00;99704.88;5046768;28;20021;-62
2023/09/21 01:26:19;;;;;;;6.22;1.80;;;;;;;19.89;100.00;99707.53;5047021;28;20112;-62
2023/09/21 01:28:47;;;;;;;3.50;2.17;;;;;;;19.89;100.00;99712.03;5047350;28;20578;-62
2023/09/21 01:31:13;;;;;;;3.08;1.70;;;;;;;19.93;100.00;99708.13;5047127;28;20028;-62
2023/09/21 01:33:39;;;;;;;6.28;2.42;;;;;;;19.90;100.00;99693.19;5046776;28;20017;-62
2023/09/21 01:36:08;;;;;;;6.68;2.03;;;;;;;19.79;100.00;99701.34;5046612;28;20079;-62
2023/09/21 01:38:34;;;;;;;2.85;1.80;;;;;;;19.78;100.00;99702.34;5043967;28;20057;-61
2023/09/21 01:41:00;;;;;;;9.23;1.85;;;;;;;19.73;100.00;99694.75;5047754;28;20024;-62
2023/09/21 01:43:26;;;;;;;3.78;1.98;;;;;;;19.70;100.00;99690.53;5029738;28;20414;-62
2023/09/21 01:45:51;;;;;;;6.70;2.00;;;;;;;19.70;100.00;99687.88;5047821;28;20039;-62
2023/09/21 01:48:20;;;;;;;5.20;2.10;;;;;;;19.69;100.00;99691.50;5046378;28;20528;-61
2023/09/21 01:50:50;;;;;;;;;;;;;;;19.69;100.00;99688.81;5048242;28;20025;-63
2023/09/21 01:53:17;;;;;;;2.20;2.00;;;;;;;19.68;100.00;99692.50;5046963;28;20065;-59
2023/09/21 01:55:43;;;;;;;4.47;1.85;;;;;;;19.72;100.00;99686.88;5047482;28;20102;-64
2023/09/21 01:58:12;;;;;;;5.75;2.10;;;;;;;19.61;100.00;99691.38;5028557;28;20025;-61
2023/09/21 02:00:39;;;;;;;8.80;1.98;;;;;;;19.60;100.00;99692.34;5043761;28;20112;-63
2023/09/21 02:03:06;;;;;;;3.28;2.03;;;;;;;19.69;100.00;99693.34;5045929;28;20052;-62
2023/09/21 02:05:32;;;;;;;4.43;2.33;;;;;;;19.74;100.00;99690.25;5047024;28;20577;-64
2023/09/21 02:07:58;;;;;;;8.07;1.98;;;;;;;19.70;100.00;99689.69;5029713;28;20021;-63
2023/09/21 02:10:24;;;;;;;3.53;1.77;;;;;;;19.72;100.00;99697.56;5046092;28;20037;-62
2023/09/21 02:12:57;;;;;;;5.53;2.20;;;;;;;19.77;100.00;99701.50;5047773;28;20147;-62
2023/09/21 02:15:24;;;;;;;5.65;2.00;;;;;;;19.83;100.00;99705.44;5047181;28;20025;-62
2023/09/21 02:17:51;;;;;;;4.43;1.98;;;;;;;19.76;100.00;99704.31;5047240;28;20154;-63
2023/09/21 02:20:17;;;;;;;2.88;1.98;;;;;;;19.78;100.00;99711.19;5047153;28;20436;-63
2023/09/21 02:22:47;;;;;;;3.15;2.10;;;;;;;19.74;100.00;99706.28;5046848;28;20029;-62
2023/09/21 02:25:13;;;;;;;5.88;2.05;;;;;;;19.80;100.00;99700.34;5046007;28;20064;-63
2023/09/21 02:27:46;;;;;;;7.10;2.10;;;;;;;19.73;100.00;99704.59;5046786;28;20431;-62
2023/09/21 02:30:17;;;;;;;6.30;2.30;;;;;;;19.75;100.00;99705.28;5050334;28;20040;-63
2023/09/21 02:32:48;;;;;;;2.83;1.85;;;;;;;19.67;100.00;99693.47;5050427;28;20025;-63
2023/09/21 02:35:15;;;;;;;8.73;2.47;;;;;;;19.65;100.00;99695.44;5049852;28;20064;-63
2023/09/21 02:37:46;;;;;;;3.17;2.05;;;;;;;19.65;100.00;99678.56;5051327;28;20047;-63
2023/09/21 02:40:14;;;;;;;4.97;2.15;;;;;;;19.63;100.00;99678.69;5049923;28;20766;-61
2023/09/21 02:42:43;;;;;;;3.38;2.17;;;;;;;19.62;100.00;99673.50;5049517;28;20154;-61
2023/09/21 02:45:12;;;;;;;4.03;2.15;;;;;;;19.58;100.00;99664.94;5050308;28;20022;-63
2023/09/21 02:47:38;;;;;;;2.03;1.75;;;;;;;19.54;100.00;99664.34;5049123;28;20563;-64
2023/09/21 02:50:25;;;;;;;7.68;2.40;;;;;;;19.48;100.00;99653.38;5032346;28;20076;-64
2023/09/21 02:53:08;;;;;;;2.50;1.90;;;;;;;19.38;100.00;99658.72;5050409;28;20471;-62
2023/09/21 02:55:35;;;;;;;3.72;2.38;;;;;;;19.31;100.00;99647.75;5049708;28;20122;-63
2023/09/21 02:58:05;;;;;;;5.60;2.22;;;;;;;19.27;100.00;99651.69;5050624;28;20029;-61
2023/09/21 03:00:34;;;;;;;4.28;2.10;;;;;;;19.22;100.00;99649.41;5049411;28;20066;-62
2023/09/21 03:03:06;;;;;;;3.83;2.35;;;;;;;19.21;100.00;99646.88;5050130;28;20025;-60
2023/09/21 03:05:33;;;;;;;5.55;2.40;;;;;;;19.17;100.00;99665.00;5048830;28;20032;-64
2023/09/21 03:08:09;;;;;;;2.88;2.22;;;;;;;19.17;100.00;99665.84;5050356;28;20029;-61
2023/09/21 03:10:36;;;;;;;7.13;2.03;;;;;;;19.19;100.00;99665.72;5049388;28;20029;-63
2023/09/21 03:13:01;;;;;;;3.42;2.08;;;;;;;19.25;100.00;99675.00;5050380;28;20042;-62
2023/09/21 03:15:27;;;;;;;7.65;2.28;;;;;;;19.22;100.00;99685.94;5050251;28;20078;-64
2023/09/21 03:17:53;;;;;;;5.90;2.60;;;;;;;19.22;100.00;99672.59;5048684;28;20429;-59
2023/09/21 03:20:29;;;;;;;4.78;1.80;;;;;;;19.16;100.00;99669.50;5050687;28;20092;-63
2023/09/21 03:22:59;;;;;;;3.85;1.75;;;;;;;19.11;100.00;99679.75;5049265;28;20017;-63
2023/09/21 03:25:28;;;;;;;2.15;1.60;;;;;;;19.04;100.00;99659.88;5049976;28;20064;-66
2023/09/21 03:27:54;;;;;;;2.63;1.80;;;;;;;19.02;100.00;99669.88;5031455;28;20391;-61
2023/09/21 03:30:20;;;;;;;3.65;2.03;;;;;;;18.91;100.00;99668.97;5049985;28;20127;-61
2023/09/21 03:32:46;;;;;;;4.32;1.90;;;;;;;18.93;100.00;99667.00;5047997;28;20506;-62
2023/09/21 03:35:12;;;;;;;4.25;2.25;;;;;;;18.91;100.00;99666.28;5050164;28;20048;-63
2023/09/21 03:37:45;;;;;;;2.88;2.15;;;;;;;18.87;100.00;99662.22;5049301;28;20029;-60
2023/09/21 03:40:11;;;;;;;4.78;2.03;;;;;;;18.87;100.00;99662.22;5048965;28;20021;-62
2023/09/21 03:42:37;;;;;;;2.97;2.10;;;;;;;18.84;100.00;99657.16;5048657;28;20124;-61
2023/09/21 03:45:07;;;;;;;3.03;1.77;;;;;;;18.83;100.00;99660.81;5048719;28;20515;-62
2023/09/21 03:47:33;;;;;;;6.07;2.15;;;;;;;18.83;100.00;99644.78;5049035;28;20021;-62
2023/09/21 03:50:00;;;;;;;5.82;2.08;;;;;;;18.79;100.00;99648.72;5048217;28;20075;-63
2023/09/21 03:52:28;;;;;;;3.70;1.98;;;;;;;18.80;100.00;99650.41;5049427;28;20368;-63
2023/09/21 03:54:55;;;;;;;4.45;2.08;;;;;;;18.73;100.00;99644.75;5048432;28;20024;-62
2023/09/21 03:57:20;;;;;;;4.10;2.10;;;;;;;18.77;100.00;99642.66;5049770;28;20106;-62
2023/09/21 03:59:46;;;;;;;4.40;2.17;;;;;;;18.73;100.00;99651.91;5049221;28;20455;-62
2023/09/21 04:02:13;;;;;;;3.53;2.00;;;;;;;18.68;100.00;99634.50;5048424;28;20071;-62
2023/09/21 04:04:39;;;;;;;4.15;2.17;;;;;;;18.67;100.00;99630.13;5048990;28;20037;-61
2023/09/21 04:07:05;;;;;;;3.95;2.45;;;;;;;18.69;100.00;99635.31;5030803;28;20032;-62
2023/09/21 04:09:30;;;;;;;4.70;2.45;;;;;;;18.71;100.00;99637.84;5049144;28;20047;-58
2023/09/21 04:11:57;;;;;;;6.32;2.28;;;;;;;18.69;100.00;99635.31;5048450;28;20130;-61
2023/09/21 04:14:24;;;;;;;5.47;2.22;;;;;;;18.68;100.00;99626.50;5049123;28;20021;-62
2023/09/21 04:16:50;;;;;;;5.38;2.38;;;;;;;18.72;100.00;99628.91;5047909;28;20024;-63
2023/09/21 04:19:15;;;;;;;5.57;2.30;;;;;;;18.70;100.00;99623.69;5049256;28;20104;-63
2023/09/21 04:21:40;;;;;;;5.43;2.65;;;;;;;18.72;100.00;99629.72;5048254;28;20577;-59
2023/09/21 04:24:06;;;;;;;3.85;2.15;;;;;;;18.67;100.00;99619.44;5048638;28;20571;-62
2023/09/21 04:26:31;;;;;;;7.40;2.33;;;;;;;18.69;100.00;99621.97;5048507;28;20658;-63
2023/09/21 04:28:57;;;;;;;4.43;2.70;;;;;;;18.64;100.00;99626.88;5048612;28;20283;-61
2023/09/21 04:31:22;;;;;;;4.25;2.42;;;;;;;18.59;100.00;99621.97;5049010;28;20055;-60
2023/09/21 04:33:48;;;;;;;4.55;2.53;;;;;;;18.53;100.00;99623.34;5047030;28;20029;-61
2023/09/21 04:36:13;;;;;;;4.07;2.45;;;;;;;18.52;100.00;99623.47;5048450;28;20033;-62
2023/09/21 04:38:39;;;;;;;8.45;2.65;;;;;;;18.49;100.00;99619.25;5046971;28;20044;-65
2023/09/21 04:41:04;;;;;;;7.10;2.72;;;;;;;18.42;100.00;99613.59;5030837;28;20112;-62
2023/09/21 04:43:32;;;;;;;4.90;2.80;;;;;;;18.37;100.00;99617.66;5048017;28;20017;-62
2023/09/21 04:45:58;;;;;;;6.50;2.30;;;;;;;18.30;100.00;99615.50;5048246;28;20048;-63
2023/09/21 04:48:23;;;;;;;4.85;2.72;;;;;;;18.28;100.00;99617.47;5045297;28;20025;-63
2023/09/21 04:50:49;;;;;;;5.38;2.90;;;;;;;18.24;100.00;99623.22;5047843;28;20032;-62
2023/09/21 04:53:17;;;;;;;4.93;2.80;;;;;;;18.24;100.00;99615.22;5047698;28;20474;-64
2023/09/21 04:55:44;;;;;;;5.00;2.85;;;;;;;18.22;100.00;99619.81;5048899;28;20025;-62
2023/09/21 04:58:09;;;;;;;4.43;2.40;;;;;;;18.24;100.00;99612.53;5032740;28;20481;-63
2023/09/21 05:00:34;;;;;;;6.40;2.63;;;;;;;18.23;100.00;99611.69;5027557;28;20026;-63
2023/09/21 05:03:00;;;;;;;5.30;3.00;;;;;;;18.18;100.00;99613.88;5026297;28;20044;-61
2023/09/21 05:05:26;;;;;;;8.80;3.10;;;;;;;18.16;100.00;99610.53;5040140;28;20031;-62
2023/09/21 05:07:52;;;;;;;7.78;3.28;;;;;;;18.13;100.00;99614.31;5048078;28;20036;-63
2023/09/21 05:10:18;;;;;;;11.07;3.30;;;;;;;18.12;100.00;99611.78;5047697;28;20017;-62
2023/09/21 05:12:43;;;;;;;10.80;3.67;;;;;;;18.12;100.00;99604.59;5046976;28;20445;-64
2023/09/21 05:15:11;;;;;;;7.32;3.35;;;;;;;18.08;100.00;99611.16;5047518;28;20043;-62
2023/09/21 05:17:36;;;;;;;6.40;3.38;;;;;;;18.05;100.00;99614.94;5044895;28;20037;-66
2023/09/21 05:20:05;;;;;;;6.57;3.20;;;;;;;18.01;100.00;99617.97;5047006;28;20025;-62
2023/09/21 05:22:30;;;;;;;7.30;2.60;;;;;;;18.01;100.00;99628.63;5046812;28;20078;-64
2023/09/21 05:24:56;;;;;;;6.80;2.72;;;;;;;17.93;100.00;99632.81;5046742;28;20028;-61
2023/09/21 05:27:21;;;;;;;3.47;2.47;;;;;;;17.92;100.00;99636.44;5047511;28;20064;-64
2023/09/21 05:29:47;;;;;;;5.90;2.90;;;;;;;17.83;100.00;99634.56;5033691;28;20025;-62
2023/09/21 05:32:13;;;;;;;4.97;2.67;;;;;;;17.68;100.00;99639.34;5046672;28;20425;-63
2023/09/21 05:34:39;;;;;;;5.30;2.72;;;;;;;17.65;100.00;99651.13;5047374;28;20040;-62
2023/09/21 05:37:04;;;;;;;4.72;2.97;;;;;;;17.43;100.00;99674.16;5046753;28;20021;-62
2023/09/21 05:39:30;;;;;;;5.07;2.70;;;;;;;17.47;100.00;99727.19;5046615;28;20603;-62
2023/09/21 05:41:57;;;;;;;2.10;1.10;;;;;;;16.98;100.00;99727.44;5045860;28;20679;-64
2023/09/21 05:44:24;;;;;;;1.20;1.10;;;;;;;16.38;100.00;99723.97;5046624;28;20375;-62
2023/09/21 05:46:50;;;;;;;3.10;1.10;;;;;;;15.95;100.00;99729.88;5045584;28;20099;-62
2023/09/21 05:49:27;;;;;;;4.13;1.20;;;;;;;15.55;100.00;99723.88;5046430;28;20113;-62
2023/09/21 05:51:53;;;;;;;1.92;1.25;;;;;;;15.28;100.00;99711.63;5047680;28;20733;-61
2023/09/21 05:54:23;;;;;;;1.90;1.10;;;;;;;15.16;100.00;99703.63;5046743;28;20056;-60
2023/09/21 05:56:50;;;;;;;2.92;1.23;;;;;;;15.13;100.00;99709.13;5048270;28;20025;-61
2023/09/21 05:59:17;;;;;;;2.03;1.27;;;;;;;15.13;100.00;99725.06;5046125;28;20104;-61
2023/09/21 06:01:43;;;;;;;3.40;1.00;;;;;;;15.09;100.00;99715.63;5046579;28;20045;-62
2023/09/21 06:04:12;;;;;;;4.72;1.08;;;;;;;15.11;100.00;99723.47;5047256;28;20032;-60
2023/09/21 06:06:38;;;;;;;1.40;1.00;;;;;;;15.11;100.00;99723.47;5045342;28;20025;-59
2023/09/21 06:09:05;;;;;;;5.47;1.40;;;;;;;15.14;100.00;99723.25;5047188;28;20056;-59
2023/09/21 06:11:30;;;;;;;3.63;1.40;;;;;;;15.11;100.00;99712.88;5045857;28;20052;-60
2023/09/21 06:13:56;;;;;;;3.72;1.30;;;;;;;15.10;100.00;99712.00;5047055;28;20056;-60
2023/09/21 06:16:21;;;;;;;2.25;1.27;;;;;;;15.08;100.00;99697.16;5046876;28;20025;-61
2023/09/21 06:18:48;;;;;;;2.05;1.13;;;;;;;15.05;100.00;99710.63;5045207;28;20040;-61
2023/09/21 06:21:15;;;;;;;3.25;1.30;;;;;;;15.00;100.00;99705.66;5045959;28;20032;-60
2023/09/21 06:23:44;;;;;;;3.25;1.38;;;;;;;15.03;100.00;99716.06;5045354;28;20025;-60
2023/09/21 06:26:15;;;;;;;1.90;1.20;;;;;;;15.05;100.00;99722.06;5046820;28;20025;-59
2023/09/21 06:28:47;;;;;;;1.63;1.25;;;;;;;15.02;100.00;99720.50;5046665;28;20395;-60
2023/09/21 06:31:13;;;;;;;3.58;1.42;;;;;;;15.06;100.00;99717.63;5046101;28;20096;-61
2023/09/21 06:33:39;;;;;;;5.07;1.10;;;;;;;15.09;100.00;99718.28;5045479;28;20053;-60
2023/09/21 06:36:05;;;;;;;1.65;1.55;;;;;;;15.10;100.00;99714.66;5045212;28;20116;-61
2023/09/21 06:38:30;;;;;;;2.00;1.33;;;;;;;15.08;100.00;99705.13;5045539;28;20101;-61
2023/09/21 06:40:55;;;;;;;1.90;1.25;;;;;;;15.09;100.00;99710.31;5046458;28;20048;-60
2023/09/21 06:43:22;;;;;;;4.07;1.73;;;;;;;15.08;100.00;99697.16;5045366;28;20641;-62
2023/09/21 06:45:47;;;;;;;5.88;1.30;;;;;;;15.08;100.00;99710.44;5047010;28;20028;-61
2023/09/21 06:48:13;;;;;;;2.67;1.40;;;;;;;15.14;100.00;99694.91;5028074;28;20025;-61
2023/09/21 06:50:40;;;;;;;1.42;1.08;;;;;;;15.15;100.00;99707.19;5044847;28;20482;-60
2023/09/21 06:53:07;;;;;;;3.15;1.30;;;;;;;15.23;100.00;99719.94;5046313;28;20029;-60
2023/09/21 06:55:34;;;;;;;5.53;1.25;;;;;;;15.21;100.00;99726.31;5045193;28;20021;-61
2023/09/21 06:57:59;;;;;;;4.72;1.23;;;;;;;15.24;100.00;99721.66;5046893;28;20033;-60
2023/09/21 07:00:25;;;;;;;2.88;1.48;;;;;;;15.22;100.00;99736.81;5046330;28;20023;-61
2023/09/21 07:02:50;;;;;;;4.00;1.67;;;;;;;15.35;100.00;99749.22;5045153;28;20036;-60
2023/09/21 07:05:15;;;;;;;4.22;1.50;;;;;;;15.41;100.00;99751.41;5046110;28;20410;-59
2023/09/21 07:07:41;;;;;;;6.30;1.67;;;;;;;15.44;100.00;99739.75;5029430;28;20367;-61
2023/09/21 07:10:11;;;;;;;3.17;1.80;;;;;;;15.47;100.00;99736.88;5046317;28;20047;-62
2023/09/21 07:12:38;;;;;;;5.90;1.80;;;;;;;15.50;100.00;99728.69;5045701;28;20079;-61
2023/09/21 07:15:03;;;;;;;3.60;1.85;;;;;;;15.48;100.00;99741.22;5047677;28;20025;-60
2023/09/21 07:17:29;;;;;;;5.47;2.00;;;;;;;15.50;100.00;99736.66;5048192;28;20040;-61
2023/09/21 07:19:54;;;;;;;3.67;1.45;;;;;;;15.49;100.00;99735.78;5049265;28;20528;-61
2023/09/21 07:22:20;;;;;;;4.53;2.05;;;;;;;15.53;100.00;99742.56;5050248;28;20051;-61
2023/09/21 07:24:47;;;;;;;1.65;1.50;;;;;;;15.56;100.00;99752.09;5048663;28;20383;-60
2023/09/21 07:27:14;;;;;;;1.88;1.50;;;;;;;15.60;100.00;99745.63;5046187;28;20043;-59
2023/09/21 07:29:39;;;;;;;2.90;1.35;;;;;;;15.64;100.00;99739.13;5048730;28;20021;-61
2023/09/21 07:32:05;;;;;;;3.75;1.75;;;;;;;15.64;100.00;99732.97;5046965;28;20450;-61
2023/09/21 07:34:32;;;;;;;3.72;1.70;;;;;;;15.68;100.00;99725.63;5047606;28;20052;-62
2023/09/21 07:36:58;;;;;;;3.78;1.60;;;;;;;15.74;100.00;99727.84;5049321;28;20029;-61
2023/09/21 07:39:23;;;;;;;5.13;1.70;;;;;;;15.73;100.00;99727.00;5047723;28;20686;-63
2023/09/21 07:41:49;;;;;;;7.20;1.50;;;;;;;15.79;100.00;99731.00;5049394;28;20044;-61
2023/09/21 07:44:16;;;;;;;2.42;1.45;;;;;;;15.81;100.00;99726.44;5049919;28;20032;-60
2023/09/21 07:46:42;;;;;;;3.88;1.48;;;;;;;15.82;100.00;99724.59;5047049;28;20032;-62
2023/09/21 07:49:07;;;;;;;2.47;1.40;;;;;;;15.87;100.00;99733.91;5049994;28;20033;-61
2023/09/21 07:51:33;;;;;;;2.55;1.85;;;;;;;15.96;100.00;99731.56;5047795;28;20043;-60
2023/09/21 07:54:00;;;;;;;3.75;1.98;;;;;;;15.96;100.00;99736.88;5049750;28;20073;-60
2023/09/21 07:56:26;;;;;;;5.30;1.90;;;;;;;15.97;100.00;99734.13;5049006;28;20029;-61
2023/09/21 07:58:52;;;;;;;3.40;1.40;;;;;;;16.04;100.00;99739.81;5048522;28;20039;-62
2023/09/21 08:01:17;;;;;;;2.83;1.60;;;;;;;16.06;100.00;99745.03;5046748;28;20383;-61
2023/09/21 08:03:43;;;;;;;3.75;1.63;;;;;;;15.99;100.00;99757.94;5048585;28;20025;-62
2023/09/21 08:06:08;;;;;;;8.52;1.92;;;;;;;15.98;100.00;99766.88;5047629;28;20021;-62
2023/09/21 08:08:33;;;;;;;5.55;1.70;;;;;;;16.05;100.00;99762.78;5046955;28;20044;-62
2023/09/21 08:10:59;;;;;;;3.83;1.40;;;;;;;15.99;100.00;99776.53;5047835;28;20083;-62
2023/09/21 08:13:25;;;;;;;5.30;2.03;;;;;;;16.01;100.00;99777.25;5048599;28;20087;-62
2023/09/21 08:15:52;;;;;;;6.75;2.00;;;;;;;16.00;100.00;99773.75;5048206;28;20025;-62
2023/09/21 08:18:17;;;;;;;4.28;1.85;;;;;;;16.05;100.00;99773.41;5047488;28;20033;-63
2023/09/21 08:20:43;;;;;;;3.55;2.17;;;;;;;16.08;100.00;99772.34;5048962;28;20036;-62
2023/09/21 08:23:09;;;;;;;4.95;1.80;;;;;;;15.95;100.00;99785.66;5048074;28;20483;-62
2023/09/21 08:25:35;;;;;;;3.35;2.00;;;;;;;15.97;100.00;99781.09;5048293;28;20517;-62
2023/09/21 08:28:05;;;;;;;3.50;2.13;;;;;;;16.19;100.00;99776.84;5047226;28;20025;-61
2023/09/21 08:30:31;;;;;;;8.02;2.22;;;;;;;16.32;100.00;99774.97;5046766;28;20368;-62
2023/09/21 08:32:57;;;;;;;6.68;2.33;;;;;;;16.44;100.00;99772.34;5048255;28;20052;-60
2023/09/21 08:35:22;;;;;;;5.75;2.30;;;;;;;16.56;100.00;99776.72;5046900;28;20068;-64
2023/09/21 08:37:50;;;;;;;7.22;2.17;;;;;;;16.61;100.00;99779.88;5048364;28;20083;-60
2023/09/21 08:40:16;;;;;;;4.55;1.92;;;;;;;16.57;100.00;99782.88;5047667;28;20047;-61
2023/09/21 08:42:41;;;;;;;3.35;1.70;;;;;;;16.56;100.00;99782.06;5030064;28;20388;-62
2023/09/21 08:45:08;;;;;;;7.57;2.15;;;;;;;16.56;100.00;99779.41;5030650;28;20475;-61
2023/09/21 08:47:33;;;;;;;7.68;1.75;;;;;;;16.58;100.00;99766.81;5046897;28;20363;-61
2023/09/21 08:50:01;;;;;;;4.20;1.77;;;;;;;16.66;100.00;99766.22;5047871;28;20036;-61
2023/09/21 08:52:27;;;;;;;4.90;1.65;;;;;;;16.67;100.00;99776.75;5047163;28;20033;-62
2023/09/21 08:54:52;;;;;;;4.03;1.75;;;;;;;16.65;100.00;99777.84;5029928;28;20031;-65
2023/09/21 08:57:18;;;;;;;5.45;1.40;;;;;;;16.72;100.00;99772.88;5048754;28;20425;-60
2023/09/21 08:59:44;;;;;;;3.35;1.33;;;;;;;16.67;100.00;99775.91;5047175;28;20112;-63
2023/09/21 09:02:12;;;;;;;3.70;1.80;;;;;;;16.74;100.00;99776.28;5028878;28;20055;-61
2023/09/21 09:04:43;;;;;;;5.75;1.85;;;;;;;16.66;100.00;99777.72;5029172;28;20458;-63
2023/09/21 09:07:12;;;;;;;7.93;1.98;;;;;;;16.70;100.00;99788.13;5048332;28;20028;-60
2023/09/21 09:09:39;;;;;;;7.30;1.95;;;;;;;16.64;100.00;99786.75;5046657;28;20050;-62
2023/09/21 09:12:22;;;;;;;6.85;2.00;;;;;;;16.83;100.00;99793.34;5044503;28;20091;-60
2023/09/21 09:14:50;;;;;;;3.85;1.60;;;;;;;16.82;100.00;99797.81;5046535;28;20021;-61
2023/09/21 09:17:16;;;;;;;7.03;1.90;;;;;;;16.74;100.00;99803.72;5041067;28;20021;-62
2023/09/21 09:19:42;;;;;;;5.40;1.75;;;;;;;16.71;100.00;99811.09;5047331;28;20036;-60
2023/09/21 09:22:10;;;;;;;4.03;1.95;;;;;;;16.73;100.00;99819.78;5046584;28;20033;-64
2023/09/21 09:24:36;;;;;;;5.83;1.87;;;;;;;16.65;100.00;99823.88;5047853;28;20021;-60
2023/09/21 09:27:01;;;;;;;4.88;2.00;;;;;;;16.61;100.00;99833.06;5046646;28;20345;-62
2023/09/21 09:29:27;;;;;;;7.75;2.08;;;;;;;16.67;100.00;99827.28;5047219;28;20044;-62
2023/09/21 09:31:52;;;;;;;5.90;2.35;;;;;;;16.64;100.00;99830.19;5047238;28;20024;-66
2023/09/21 09:34:18;;;;;;;4.90;1.75;;;;;;;16.66;100.00;99820.28;5047265;28;20067;-61
2023/09/21 09:36:54;;;;;;;7.13;2.00;;;;;;;16.76;100.00;99812.44;5046571;28;20368;-60
2023/09/21 09:39:19;;;;;;;3.13;2.03;;;;;;;16.77;100.00;99813.28;5046352;28;20029;-62
2023/09/21 09:41:50;;;;;;;8.15;2.55;;;;;;;16.81;100.00;99822.72;5046763;28;20475;-61
2023/09/21 09:44:21;;;;;;;3.38;2.10;;;;;;;16.83;100.00;99819.94;5046857;28;20104;-61
2023/09/21 09:46:46;;;;;;;3.70;2.17;;;;;;;16.85;100.00;99833.97;5044625;28;20036;-62
2023/09/21 09:49:13;;;;;;;3.63;1.90;;;;;;;16.87;100.00;99850.66;5030050;28;20087;-62
2023/09/21 09:51:44;;;;;;;4.80;1.60;;;;;;;16.71;100.00;99864.28;5028590;28;20021;-60
2023/09/21 09:54:10;;;;;;;2.78;1.63;;;;;;;16.55;100.00;99865.44;5028959;28;20071;-61
2023/09/21 09:56:41;;;;;;;4.68;1.60;;;;;;;16.59;100.00;99864.25;5028361;28;20037;-61
2023/09/21 09:59:11;;;;;;;5.68;2.00;;;;;;;16.53;100.00;99862.06;5046132;28;20033;-60
2023/09/21 10:01:39;;;;;;;3.15;1.55;;;;;;;16.50;100.00;99851.66;5045318;28;20028;-62
2023/09/21 10:04:06;;;;;;;2.60;1.42;;;;;;;16.51;100.00;99851.53;5046662;28;20103;-62
2023/09/21 10:06:34;;;;;;;6.32;2.00;;;;;;;16.46;100.00;99860.81;5047157;28;20029;-60
2023/09/21 10:08:59;;;;;;;3.85;1.98;;;;;;;16.51;100.00;99864.81;5046323;28;20033;-61
2023/09/21 10:11:27;;;;;;;4.55;1.67;;;;;;;16.37;100.00;99863.19;5028685;28;20116;-62
2023/09/21 10:13:54;;;;;;;5.30;1.95;;;;;;;16.38;100.00;99859.56;5046138;28;20080;-60
2023/09/21 10:16:20;;;;;;;3.53;1.85;;;;;;;16.41;100.00;99864.66;5045472;28;20090;-60
2023/09/21 10:18:53;;;;;;;4.80;2.20;;;;;;;16.42;100.00;99849.56;5028687;28;20117;-59
2023/09/21 10:21:31;;;;;;;7.15;2.03;;;;;;;16.41;100.00;99855.84;5046478;28;20053;-61
2023/09/21 10:24:17;;;;;;;3.13;1.75;;;;;;;16.50;100.00;99857.78;5047380;28;20019;-61
2023/09/21 10:26:45;;;;;;;2.45;1.50;;;;;;;16.50;100.00;99864.94;5028793;28;20294;-61
2023/09/21 10:29:12;;;;;;;2.83;1.58;;;;;;;16.52;100.00;99865.66;5028091;28;20509;-59
2023/09/21 10:31:55;;;;;;;1.67;1.52;;;;;;;16.60;100.00;99857.97;5045505;28;20052;-60
2023/09/21 10:34:24;;;;;;;3.67;1.85;;;;;;;16.81;100.00;99833.38;5046100;28;20422;-61
2023/09/21 10:36:51;;;;;;;5.00;1.80;;;;;;;16.90;100.00;99819.38;5047287;28;20091;-59
2023/09/21 10:39:28;;;;;;;5.82;1.45;;;;;;;16.96;100.00;99814.50;5045599;28;20390;-61
2023/09/21 10:41:55;;;;;;;6.13;1.67;;;;;;;16.95;100.00;99820.81;5042652;28;20033;-61
2023/09/21 10:45:04;;;;;;;7.80;1.70;;;;;;;17.00;100.00;99816.81;5046542;28;20029;-61
2023/09/21 10:47:44;;;;;;;;;;;;;;;16.89;100.00;99820.31;5044695;28;20630;-60
2023/09/21 10:50:11;;;;;;;2.08;1.30;;;;;;;16.93;100.00;99819.13;5048483;28;19912;-61
2023/09/21 10:52:39;;;;;;;2.55;1.30;;;;;;;16.84;100.00;99813.66;5049500;28;20082;-62
2023/09/21 10:55:05;;;;;;;3.47;1.48;;;;;;;16.90;100.00;99811.38;5032199;28;20025;-60
2023/09/21 10:57:31;;;;;;;4.13;1.40;;;;;;;17.07;100.00;99801.28;5050070;28;20025;-60
2023/09/21 11:00:00;;;;;;;1.70;1.50;;;;;;;17.14;100.00;99802.47;5047905;28;20558;-63
2023/09/21 11:02:30;;;;;;;;;;;;;;;17.21;100.00;99802.84;5048543;28;20155;-59
2023/09/21 11:04:57;;;;;;;2.22;1.45;;;;;;;17.14;100.00;99802.47;5049935;28;19912;-61
2023/09/21 11:07:24;;;;;;;5.55;1.75;;;;;;;17.08;100.00;99813.59;5049478;28;20020;-64
2023/09/21 11:09:50;;;;;;;2.10;1.45;;;;;;;17.09;100.00;99809.97;5051283;28;20024;-60
2023/09/21 11:12:17;;;;;;;2.72;1.45;;;;;;;17.30;100.00;99809.25;5031070;28;20091;-60
2023/09/21 11:14:47;;;;;;;2.45;1.33;;;;;;;17.50;100.00;99806.81;5048522;28;20041;-61
2023/09/21 11:17:16;;;;;;;4.07;1.55;;;;;;;17.58;100.00;99804.38;5046702;28;20044;-62
2023/09/21 11:19:42;;;;;;;1.23;1.10;;;;;;;17.57;100.00;99800.03;5048874;28;20101;-60
2023/09/21 11:22:09;;;;;;;4.38;1.33;;;;;;;17.61;100.00;99790.81;5041760;28;20471;-65
2023/09/21 11:24:38;;;;;;;1.80;1.10;;;;;;;17.85;100.00;99778.31;5047883;28;20048;-61
2023/09/21 11:27:06;;;;;;;2.47;1.38;;;;;;;17.65;100.00;99770.13;5049841;28;20017;-60
2023/09/21 11:29:33;;;;;;;1.70;1.00;;;;;;;17.87;100.00;99769.22;5046732;28;20055;-61